createdAt,value
2018-07-15T18:32:10.071Z,99878.50
2018-07-15T18:39:53.862Z,99885.03
2018-07-15T18:45:50.686Z,99885.27
2018-07-15T18:48:24.540Z,99881.67
2018-07-15T18:51:30.295Z,99878.63
2018-07-15T18:54:02.641Z,99883.77
2018-07-15T18:56:37.619Z,99880.34
2018-07-15T18:59:12.936Z,99880.80
2018-07-15T19:01:50.912Z,99880.00
2018-07-15T19:04:25.346Z,99887.77
2018-07-15T19:06:58.492Z,99886.92
2018-07-15T19:09:32.156Z,99887.44
2018-07-15T19:12:05.011Z,99888.86
2018-07-15T19:14:41.627Z,99890.48
2018-07-15T19:17:17.412Z,99893.77
2018-07-15T19:20:00.609Z,99895.05
2018-07-15T19:22:33.940Z,99895.37
2018-07-15T19:25:10.575Z,99901.44
2018-07-15T19:27:44.883Z,99903.98
2018-07-15T19:30:17.953Z,99906.30
2018-07-15T19:32:52.637Z,99902.77
2018-07-15T19:35:34.687Z,99901.75
2018-07-15T19:38:10.743Z,99906.38
2018-07-15T19:40:44.623Z,99912.72
2018-07-15T19:43:21.652Z,99917.27
2018-07-15T19:46:00.792Z,99919.08
2018-07-15T19:48:35.693Z,99920.39
2018-07-15T19:51:11.117Z,99927.81
2018-07-15T19:53:47.324Z,99929.69
2018-07-15T19:56:21.108Z,99933.10
2018-07-15T19:58:53.639Z,99930.23
2018-07-15T20:01:30.034Z,99931.73
2018-07-15T20:04:02.381Z,99934.08
2018-07-15T20:06:40.737Z,99937.01
2018-07-15T20:09:14.273Z,99944.41
2018-07-15T20:12:03.324Z,99945.72
2018-07-15T20:14:37.815Z,99947.44
2018-07-15T20:17:16.544Z,99949.19
2018-07-15T20:19:49.810Z,99945.63
2018-07-15T20:22:25.848Z,99949.25
2018-07-15T20:25:03.487Z,99948.17
2018-07-15T20:27:37.683Z,99942.02
2018-07-15T20:30:17.243Z,99945.08
2018-07-15T20:32:55.508Z,99945.16
2018-07-15T20:35:32.702Z,99947.27
2018-07-15T20:38:12.196Z,99944.98
2018-07-15T20:40:47.037Z,99942.38
2018-07-15T20:43:20.019Z,99940.67
2018-07-15T20:45:54.812Z,99941.25
2018-07-15T20:48:29.272Z,99941.66
2018-07-15T20:51:05.274Z,99949.16
2018-07-15T20:53:40.225Z,99950.66
2018-07-15T20:56:14.466Z,99946.85
2018-07-15T20:58:50.600Z,99951.21
